Time,TemperatureF,DewpointF,PressureIn,WindDirection,WindDirectionDegrees,WindSpeedMPH,WindSpeedGustMPH,Humidity,HourlyPrecipIn,Conditions,Clouds,dailyrainin,SoftwareType,DateUTC
2013-02-19 00:01:00,36.0,31.0,-100.00,East,89,6.0,8.0,81,-99.99,,,-99.99,,2013-02-19 08:01:00,
2013-02-19 00:11:00,36.0,29.0,-100.00,East,88,6.0,8.0,76,-99.99,,,-99.99,,2013-02-19 08:11:00,
2013-02-19 00:21:00,38.0,28.0,-100.00,East,84,6.0,7.0,68,-99.99,,,-99.99,,2013-02-19 08:21:00,
2013-02-19 00:31:00,38.0,27.0,-100.00,East,86,6.0,8.0,64,-99.99,,,-99.99,,2013-02-19 08:31:00,
2013-02-19 00:42:00,38.0,25.0,-100.00,East,80,6.0,8.0,59,-99.99,,,-99.99,,2013-02-19 08:42:00,
2013-02-19 00:52:00,37.0,24.0,-100.00,East,95,4.0,8.0,60,-99.99,,,-99.99,,2013-02-19 08:52:00,
2013-02-19 01:01:00,37.0,24.0,-100.00,ENE,61,3.0,6.0,58,-99.99,,,-99.99,,2013-02-19 09:01:00,
2013-02-19 01:11:00,33.0,29.0,-100.00,WNW,287,6.0,9.0,84,-99.99,,,-99.99,,2013-02-19 09:11:00,
2013-02-19 01:21:00,31.0,30.0,-100.00,WNW,293,4.0,7.0,95,-99.99,,,-99.99,,2013-02-19 09:21:00,
2013-02-19 01:31:00,30.0,29.0,-100.00,ENE,73,3.0,5.0,96,-99.99,,,-99.99,,2013-02-19 09:31:00,
2013-02-19 01:41:00,29.0,28.0,-100.00,East,90,5.0,6.0,96,-99.99,,,-99.99,,2013-02-19 09:41:00,
2013-02-19 01:52:00,29.0,29.0,-100.00,East,88,4.0,5.0,98,-99.99,,,-99.99,,2013-02-19 09:52:00,
2013-02-19 02:01:00,30.0,29.0,-100.00,East,89,4.0,5.0,98,-99.99,,,-99.99,,2013-02-19 10:01:00,
2013-02-19 02:11:00,31.0,31.0,-100.00,ENE,77,4.0,6.0,98,-99.99,,,-99.99,,2013-02-19 10:11:00,
2013-02-19 02:21:00,31.0,31.0,-100.00,East,90,5.0,6.0,98,-99.99,,,-99.99,,2013-02-19 10:21:00,
2013-02-19 02:31:00,32.0,31.0,-100.00,East,99,4.0,6.0,97,-99.99,,,-99.99,,2013-02-19 10:31:00,
2013-02-19 02:41:00,33.0,32.0,-100.00,East,100,4.0,7.0,97,-99.99,,,-99.99,,2013-02-19 10:41:00,
2013-02-19 02:51:00,32.0,31.0,-100.00,East,88,6.0,9.0,96,-99.99,,,-99.99,,2013-02-19 10:51:00,
2013-02-19 03:01:00,33.0,32.0,-100.00,East,89,6.0,9.0,96,-99.99,,,-99.99,,2013-02-19 11:01:00,
2013-02-19 03:11:00,33.0,32.0,-100.00,East,91,8.0,9.0,96,-99.99,,,-99.99,,2013-02-19 11:11:00,
2013-02-19 03:21:00,32.0,31.0,-100.00,ESE,103,6.0,9.0,96,-99.99,,,-99.99,,2013-02-19 11:21:00,
2013-02-19 03:31:00,32.0,31.0,-100.00,East,95,6.0,8.0,96,-99.99,,,-99.99,,2013-02-19 11:31:00,
2013-02-19 03:42:00,32.0,31.0,-100.00,ESE,104,6.0,9.0,96,-99.99,,,-99.99,,2013-02-19 11:42:00,
2013-02-19 03:52:00,33.0,32.0,-100.00,East,93,5.0,8.0,96,-99.99,,,-99.99,,2013-02-19 11:52:00,
2013-02-19 04:01:00,33.0,32.0,-100.00,ENE,71,4.0,8.0,95,-99.99,,,-99.99,,2013-02-19 12:01:00,
2013-02-19 04:12:00,33.0,31.0,-100.00,ESE,105,5.0,6.0,93,-99.99,,,-99.99,,2013-02-19 12:12:00,
2013-02-19 04:21:00,33.0,31.0,-100.00,ESE,105,5.0,6.0,93,-99.99,,,-99.99,,2013-02-19 12:21:00,
2013-02-19 04:32:00,34.0,32.0,-100.00,East,92,2.0,5.0,92,-99.99,,,-99.99,,2013-02-19 12:32:00,
2013-02-19 04:42:00,34.0,32.0,-100.00,East,92,2.0,5.0,92,-99.99,,,-99.99,,2013-02-19 12:42:00,
2013-02-19 04:52:00,35.0,32.0,-100.00,SSE,159,3.0,6.0,87,-99.99,,,-99.99,,2013-02-19 12:52:00,
2013-02-19 05:01:00,35.0,31.0,-100.00,WSW,243,4.0,8.0,85,-99.99,,,-99.99,,2013-02-19 13:01:00,
2013-02-19 05:11:00,35.0,31.0,-100.00,WSW,243,4.0,8.0,85,-99.99,,,-99.99,,2013-02-19 13:11:00,
2013-02-19 05:22:00,35.0,32.0,-100.00,South,169,4.0,10.0,88,-99.99,,,-99.99,,2013-02-19 13:22:00,
2013-02-19 05:31:00,34.0,31.0,-100.00,SW,219,5.0,9.0,87,-99.99,,,-99.99,,2013-02-19 13:31:00,
2013-02-19 05:41:00,34.0,31.0,-100.00,WSW,249,5.0,14.0,87,-99.99,,,-99.99,,2013-02-19 13:41:00,
2013-02-19 05:52:00,34.0,30.0,-100.00,South,184,4.0,11.0,86,-99.99,,,-99.99,,2013-02-19 13:52:00,
2013-02-19 06:01:00,34.0,30.0,-100.00,SW,232,6.0,16.0,85,-99.99,,,-99.99,,2013-02-19 14:01:00,
2013-02-19 06:11:00,34.0,30.0,-100.00,South,187,4.0,8.0,86,-99.99,,,-99.99,,2013-02-19 14:11:00,
2013-02-19 06:21:00,34.0,31.0,-100.00,SW,235,3.0,10.0,88,-99.99,,,-99.99,,2013-02-19 14:21:00,
2013-02-19 06:32:00,34.0,32.0,-100.00,WSW,258,3.0,7.0,91,-99.99,,,-99.99,,2013-02-19 14:32:00,
2013-02-19 06:41:00,34.0,32.0,-100.00,WSW,254,7.0,14.0,93,-99.99,,,-99.99,,2013-02-19 14:41:00,
2013-02-19 06:52:00,34.0,32.0,-100.00,WSW,240,9.0,15.0,93,-99.99,,,-99.99,,2013-02-19 14:52:00,
2013-02-19 07:01:00,34.0,32.0,-100.00,SW,231,4.0,11.0,91,-99.99,,,-99.99,,2013-02-19 15:01:00,
2013-02-19 07:11:00,34.0,31.0,-100.00,SSW,209,4.0,8.0,90,-99.99,,,-99.99,,2013-02-19 15:11:00,
2013-02-19 07:21:00,34.0,31.0,-100.00,SSW,205,4.0,8.0,89,-99.99,,,-99.99,,2013-02-19 15:21:00,
2013-02-19 07:31:00,34.0,31.0,-100.00,WSW,241,4.0,9.0,89,-99.99,,,-99.99,,2013-02-19 15:31:00,
2013-02-19 07:42:00,34.0,31.0,-100.00,WSW,241,4.0,9.0,89,-99.99,,,-99.99,,2013-02-19 15:42:00,
2013-02-19 07:52:00,34.0,31.0,-100.00,SW,236,3.0,7.0,89,-99.99,,,-99.99,,2013-02-19 15:52:00,
2013-02-19 08:01:00,34.0,31.0,-100.00,SW,214,3.0,8.0,88,-99.99,,,-99.99,,2013-02-19 16:01:00,
2013-02-19 08:11:00,35.0,32.0,-100.00,WSW,245,5.0,11.0,87,-99.99,,,-99.99,,2013-02-19 16:11:00,
2013-02-19 08:21:00,35.0,32.0,-100.00,WSW,240,4.0,9.0,88,-99.99,,,-99.99,,2013-02-19 16:21:00,
2013-02-19 08:31:00,35.0,32.0,-100.00,WSW,240,4.0,9.0,88,-99.99,,,-99.99,,2013-02-19 16:31:00,
2013-02-19 08:41:00,34.0,31.0,-100.00,SW,234,5.0,11.0,90,-99.99,,,-99.99,,2013-02-19 16:41:00,
2013-02-19 08:51:00,34.0,31.0,-100.00,SW,230,5.0,11.0,90,-99.99,,,-99.99,,2013-02-19 16:51:00,
2013-02-19 09:01:00,35.0,32.0,-100.00,SW,228,5.0,11.0,90,-99.99,,,-99.99,,2013-02-19 17:01:00,
2013-02-19 09:11:00,35.0,32.0,-100.00,South,187,6.0,13.0,89,-99.99,,,-99.99,,2013-02-19 17:11:00,
2013-02-19 09:21:00,35.0,33.0,-100.00,SW,226,6.0,11.0,91,-99.99,,,-99.99,,2013-02-19 17:21:00,
2013-02-19 09:31:00,35.0,32.0,-100.00,SW,217,5.0,11.0,90,-99.99,,,-99.99,,2013-02-19 17:31:00,
2013-02-19 09:41:00,35.0,32.0,-100.00,SSW,213,5.0,10.0,89,-99.99,,,-99.99,,2013-02-19 17:41:00,
2013-02-19 09:52:00,35.0,31.0,-100.00,SW,220,6.0,10.0,86,-99.99,,,-99.99,,2013-02-19 17:52:00,
2013-02-19 10:01:00,35.0,31.0,-100.00,SSW,210,5.0,10.0,85,-99.99,,,-99.99,,2013-02-19 18:01:00,
2013-02-19 10:11:00,36.0,32.0,-100.00,SW,227,5.0,11.0,85,-99.99,,,-99.99,,2013-02-19 18:11:00,
2013-02-19 10:21:00,36.0,32.0,-100.00,SSW,209,6.0,13.0,86,-99.99,,,-99.99,,2013-02-19 18:21:00,
2013-02-19 10:31:00,36.0,32.0,-100.00,SW,233,6.0,12.0,86,-99.99,,,-99.99,,2013-02-19 18:31:00,
2013-02-19 10:41:00,35.0,32.0,-100.00,SW,233,8.0,12.0,88,-99.99,,,-99.99,,2013-02-19 18:41:00,
2013-02-19 10:51:00,35.0,33.0,-100.00,SW,220,7.0,13.0,91,-99.99,,,-99.99,,2013-02-19 18:51:00,
2013-02-19 11:01:00,35.0,32.0,-100.00,WSW,240,6.0,12.0,88,-99.99,,,-99.99,,2013-02-19 19:01:00,
2013-02-19 11:11:00,36.0,33.0,-100.00,WSW,257,6.0,12.0,87,-99.99,,,-99.99,,2013-02-19 19:11:00,
2013-02-19 11:21:00,36.0,33.0,-100.00,SW,235,6.0,11.0,87,-99.99,,,-99.99,,2013-02-19 19:21:00,
2013-02-19 11:31:00,36.0,33.0,-100.00,SW,224,7.0,13.0,89,-99.99,,,-99.99,,2013-02-19 19:31:00,
2013-02-19 11:41:00,36.0,33.0,-100.00,WSW,244,8.0,14.0,90,-99.99,,,-99.99,,2013-02-19 19:41:00,
2013-02-19 11:51:00,36.0,34.0,-100.00,WSW,245,8.0,15.0,91,-99.99,,,-99.99,,2013-02-19 19:51:00,
2013-02-19 12:01:00,35.0,33.0,-100.00,WSW,246,11.0,17.0,92,-99.99,,,-99.99,,2013-02-19 20:01:00,
2013-02-19 12:11:00,36.0,34.0,-100.00,WSW,254,9.0,15.0,91,-99.99,,,-99.99,,2013-02-19 20:11:00,
2013-02-19 12:21:00,36.0,33.0,-100.00,WSW,245,9.0,18.0,88,-99.99,,,-99.99,,2013-02-19 20:21:00,
2013-02-19 12:31:00,36.0,33.0,-100.00,WSW,251,8.0,17.0,88,-99.99,,,-99.99,,2013-02-19 20:31:00,
2013-02-19 12:41:00,36.0,34.0,-100.00,WSW,242,10.0,18.0,91,-99.99,,,-99.99,,2013-02-19 20:41:00,
2013-02-19 12:52:00,36.0,34.0,-100.00,WSW,255,10.0,16.0,94,-99.99,,,-99.99,,2013-02-19 20:52:00,
2013-02-19 13:01:00,35.0,34.0,-100.00,WSW,251,10.0,17.0,95,-99.99,,,-99.99,,2013-02-19 21:01:00,
2013-02-19 13:11:00,35.0,34.0,-100.00,WSW,249,9.0,15.0,96,-99.99,,,-99.99,,2013-02-19 21:11:00,
2013-02-19 13:21:00,36.0,35.0,-100.00,WSW,248,11.0,17.0,96,-99.99,,,-99.99,,2013-02-19 21:21:00,
2013-02-19 13:31:00,36.0,35.0,-100.00,WSW,253,10.0,18.0,96,-99.99,,,-99.99,,2013-02-19 21:31:00,
2013-02-19 13:42:00,36.0,35.0,-100.00,WSW,250,10.0,16.0,97,-99.99,,,-99.99,,2013-02-19 21:42:00,
2013-02-19 13:51:00,36.0,35.0,-100.00,WSW,247,9.0,15.0,96,-99.99,,,-99.99,,2013-02-19 21:51:00,
2013-02-19 14:01:00,36.0,35.0,-100.00,WSW,256,9.0,15.0,96,-99.99,,,-99.99,,2013-02-19 22:01:00,
2013-02-19 14:11:00,36.0,35.0,-100.00,WSW,258,8.0,13.0,96,-99.99,,,-99.99,,2013-02-19 22:11:00,
2013-02-19 14:21:00,36.0,35.0,-100.00,WSW,254,9.0,16.0,96,-99.99,,,-99.99,,2013-02-19 22:21:00,
2013-02-19 14:31:00,36.0,35.0,-100.00,WSW,256,9.0,15.0,96,-99.99,,,-99.99,,2013-02-19 22:31:00,
2013-02-19 14:41:00,36.0,35.0,-100.00,WSW,256,9.0,16.0,96,-99.99,,,-99.99,,2013-02-19 22:41:00,
2013-02-19 14:51:00,36.0,35.0,-100.00,WSW,255,10.0,16.0,97,-99.99,,,-99.99,,2013-02-19 22:51:00,
2013-02-19 15:01:00,36.0,35.0,-100.00,WSW,248,10.0,16.0,97,-99.99,,,-99.99,,2013-02-19 23:01:00,
2013-02-19 15:11:00,37.0,36.0,-100.00,WSW,245,8.0,16.0,98,-99.99,,,-99.99,,2013-02-19 23:11:00,
2013-02-19 15:21:00,37.0,36.0,-100.00,WSW,248,11.0,21.0,98,-99.99,,,-99.99,,2013-02-19 23:21:00,
2013-02-19 15:31:00,37.0,36.0,-100.00,WSW,250,13.0,22.0,98,-99.99,,,-99.99,,2013-02-19 23:31:00,
2013-02-19 15:41:00,36.0,35.0,-100.00,WSW,257,14.0,24.0,98,-99.99,,,-99.99,,2013-02-19 23:41:00,
2013-02-19 15:52:00,36.0,35.0,-100.00,WSW,255,15.0,21.0,98,-99.99,,,-99.99,,2013-02-19 23:52:00,
2013-02-19 16:01:00,36.0,36.0,-100.00,West,261,14.0,23.0,99,-99.99,,,-99.99,,2013-02-20 00:01:00,
2013-02-19 16:11:00,36.0,36.0,-100.00,West,260,14.0,22.0,99,-99.99,,,-99.99,,2013-02-20 00:11:00,
2013-02-19 16:21:00,36.0,36.0,-100.00,WSW,254,13.0,22.0,99,-99.99,,,-99.99,,2013-02-20 00:21:00,
2013-02-19 16:31:00,36.0,36.0,-100.00,WSW,251,16.0,25.0,99,-99.99,,,-99.99,,2013-02-20 00:31:00,
2013-02-19 16:41:00,36.0,36.0,-100.00,WSW,256,16.0,24.0,99,-99.99,,,-99.99,,2013-02-20 00:41:00,
2013-02-19 16:51:00,35.0,35.0,-100.00,WSW,251,15.0,31.0,99,-99.99,,,-99.99,,2013-02-20 00:51:00,
2013-02-19 17:02:00,35.0,35.0,-100.00,WSW,253,14.0,22.0,99,-99.99,,,-99.99,,2013-02-20 01:02:00,
2013-02-19 17:11:00,35.0,35.0,-100.00,West,260,16.0,26.0,99,-99.99,,,-99.99,,2013-02-20 01:11:00,
2013-02-19 17:21:00,35.0,35.0,-100.00,WSW,256,15.0,26.0,99,-99.99,,,-99.99,,2013-02-20 01:21:00,
2013-02-19 17:31:00,35.0,35.0,-100.00,WSW,250,17.0,27.0,99,-99.99,,,-99.99,,2013-02-20 01:31:00,
2013-02-19 17:41:00,35.0,35.0,-100.00,WSW,251,16.0,23.0,99,-99.99,,,-99.99,,2013-02-20 01:41:00,
2013-02-19 17:51:00,34.0,34.0,-100.00,WSW,250,16.0,27.0,99,-99.99,,,-99.99,,2013-02-20 01:51:00,
2013-02-19 18:01:00,34.0,34.0,-100.00,WSW,251,15.0,27.0,99,-99.99,,,-99.99,,2013-02-20 02:01:00,
2013-02-19 18:11:00,34.0,34.0,-100.00,WSW,258,15.0,24.0,100,-99.99,,,-99.99,,2013-02-20 02:11:00,
2013-02-19 18:21:00,34.0,34.0,-100.00,WSW,253,15.0,26.0,100,-99.99,,,-99.99,,2013-02-20 02:21:00,
2013-02-19 18:31:00,34.0,34.0,-100.00,WSW,245,13.0,23.0,100,-99.99,,,-99.99,,2013-02-20 02:31:00,
2013-02-19 18:41:00,34.0,34.0,-100.00,WSW,247,14.0,24.0,100,-99.99,,,-99.99,,2013-02-20 02:41:00,
2013-02-19 18:52:00,34.0,34.0,-100.00,WSW,247,17.0,27.0,100,-99.99,,,-99.99,,2013-02-20 02:52:00,
2013-02-19 19:01:00,34.0,34.0,-100.00,WSW,240,15.0,25.0,100,-99.99,,,-99.99,,2013-02-20 03:01:00,
2013-02-19 19:12:00,33.0,33.0,-100.00,WSW,246,13.0,20.0,100,-99.99,,,-99.99,,2013-02-20 03:12:00,
2013-02-19 19:21:00,33.0,33.0,-100.00,WSW,244,14.0,23.0,100,-99.99,,,-99.99,,2013-02-20 03:21:00,
2013-02-19 19:32:00,33.0,33.0,-100.00,WSW,251,11.0,19.0,100,-99.99,,,-99.99,,2013-02-20 03:32:00,
2013-02-19 19:41:00,33.0,33.0,-100.00,WSW,246,15.0,24.0,100,-99.99,,,-99.99,,2013-02-20 03:41:00,
2013-02-19 19:51:00,33.0,33.0,-100.00,WSW,253,18.0,31.0,100,-99.99,,,-99.99,,2013-02-20 03:51:00,
2013-02-19 20:01:00,33.0,33.0,-100.00,WSW,251,20.0,32.0,100,-99.99,,,-99.99,,2013-02-20 04:01:00,
2013-02-19 20:11:00,33.0,33.0,-100.00,WSW,247,20.0,30.0,100,-99.99,,,-99.99,,2013-02-20 04:11:00,
2013-02-19 20:21:00,33.0,33.0,-100.00,WSW,248,18.0,29.0,100,-99.99,,,-99.99,,2013-02-20 04:21:00,
2013-02-19 20:31:00,33.0,33.0,-100.00,WSW,250,18.0,29.0,100,-99.99,,,-99.99,,2013-02-20 04:31:00,
2013-02-19 20:41:00,33.0,33.0,-100.00,WSW,256,18.0,30.0,100,-99.99,,,-99.99,,2013-02-20 04:41:00,
2013-02-19 20:51:00,33.0,33.0,-100.00,West,259,19.0,33.0,100,-99.99,,,-99.99,,2013-02-20 04:51:00,
2013-02-19 21:02:00,33.0,33.0,-100.00,WSW,252,21.0,33.0,100,-99.99,,,-99.99,,2013-02-20 05:02:00,
2013-02-19 21:12:00,33.0,33.0,-100.00,WSW,256,16.0,28.0,100,-99.99,,,-99.99,,2013-02-20 05:12:00,
2013-02-19 21:22:00,33.0,33.0,-100.00,West,259,16.0,28.0,100,-99.99,,,-99.99,,2013-02-20 05:22:00,
2013-02-19 21:32:00,33.0,33.0,-100.00,West,262,16.0,26.0,100,-99.99,,,-99.99,,2013-02-20 05:32:00,
2013-02-19 21:42:00,33.0,33.0,-100.00,West,263,17.0,28.0,100,-99.99,,,-99.99,,2013-02-20 05:42:00,
2013-02-19 21:52:00,33.0,33.0,-100.00,West,267,15.0,27.0,100,-99.99,,,-99.99,,2013-02-20 05:52:00,
2013-02-19 22:01:00,33.0,33.0,-100.00,West,267,15.0,27.0,100,-99.99,,,-99.99,,2013-02-20 06:01:00,
2013-02-19 22:11:00,33.0,33.0,-100.00,West,259,13.0,20.0,100,-99.99,,,-99.99,,2013-02-20 06:11:00,
2013-02-19 22:21:00,33.0,33.0,-100.00,WSW,245,12.0,19.0,100,-99.99,,,-99.99,,2013-02-20 06:21:00,
2013-02-19 22:31:00,33.0,33.0,-100.00,WSW,241,10.0,18.0,100,-99.99,,,-99.99,,2013-02-20 06:31:00,
2013-02-19 22:42:00,33.0,33.0,-100.00,SW,234,13.0,22.0,100,-99.99,,,-99.99,,2013-02-20 06:42:00,
2013-02-19 22:51:00,33.0,33.0,-100.00,SW,235,13.0,22.0,100,-99.99,,,-99.99,,2013-02-20 06:51:00,
2013-02-19 23:01:00,33.0,33.0,-100.00,WSW,237,10.0,17.0,100,-99.99,,,-99.99,,2013-02-20 07:01:00,
2013-02-19 23:11:00,33.0,33.0,-100.00,SW,218,11.0,18.0,100,-99.99,,,-99.99,,2013-02-20 07:11:00,
2013-02-19 23:21:00,33.0,33.0,-100.00,SW,226,10.0,17.0,100,-99.99,,,-99.99,,2013-02-20 07:21:00,
2013-02-19 23:31:00,33.0,33.0,-100.00,WSW,246,10.0,17.0,100,-99.99,,,-99.99,,2013-02-20 07:31:00,
2013-02-19 23:41:00,33.0,33.0,-100.00,WSW,246,10.0,17.0,100,-99.99,,,-99.99,,2013-02-20 07:41:00,
2013-02-19 23:51:00,32.0,32.0,-100.00,WSW,250,14.0,26.0,100,-99.99,,,-99.99,,2013-02-20 07:51:00,